Dove Creek, Colorado
Current Conditions -  °F | °C
As of 6:35 PM on Friday 24 Oct 2014 (Local Time) from KBDG Reporting Station
Clear Clear  
Wind Chill: 67°   Ceiling: Unl
Heat Index: 67°   Visibility: 10mi
Dew Point: 34°   Wind: 0mph
Humidity: 29%   Direction: NA
Pressure: 30.34"   Gusts: NA
Location:  37.77°N, 108.91°W
Report Text: KBDG 250035Z AUTO 00000KT 10SM CLR 20/01 A3034 RMK AO1 T01960010
Loading
Personal Weather Stations






























Interactive Weather Map
Tropical Storm Tracking
New forecast layout! Learn more

10-Day Weather Forecast

Advertisements
Track Severe Weather on mobile